Tiempo atmosférico en la estación meteorológica de Blanes, Girona (60 m.)



Fecha
DESCASC
Temp. máxima en grados centígrados (hora)
DESCASC
Temp. mínima en grados centígrados (hora)
DESCASC
Temp. media en grados centígrados
DESCASC
Racha de viento máxima en m/sg (hora)
DESCASC
Velocidad máxima media en intervalos de 10 minutos(hora)
DESCASC
Precipitaciones diarias en mm
DESCASC
Precipitaciones de 00:00 a 06:00 en mm
DESCASC
Precipitaciones de 06:00 a 12:00 en mm
DESCASC
Precipitaciones de 12:00 a 18:00 en mm
DESCASC
Precipitaciones de 18:00 a 24:00 en mm
DESCASC
11-12-2019 14.6 (12:50) 8.2 (23:59) 11.4 7.78 (05:30) 4.72 (17:50) 1.2 0 0 1.2 0
10-12-2019 14.3 (12:40) 5.6 (06:20) 10 13.33 (06:50) 5 (09:10) 0 0 0 0 0
09-12-2019 16.1 (14:40) 9 (08:00) 12.6 9.44 (07:50) 6.11 (07:50) 0 0 0 0 0
08-12-2019 15.9 (12:10) 9.9 (00:00) 12.9 6.11 (23:10) 4.17 (01:20) 0 0 0 0 0
07-12-2019 16.4 (12:50) 8.8 (00:00) 12.6 8.89 (01:30) 5.83 (01:30) 0 0 0 0 0
06-12-2019 16.2 (14:40) 11.2 (00:00) 13.7 6.67 (00:20) 5.56 (06:00) 0 0 0 0 0
05-12-2019 12 (00:00) 9.2 (00:00) 10.6 13.89 (06:30) 6.94 (05:30) 30.6 21.4 3 6.2 0
04-12-2019 12.9 (20:40) 10.5 (00:00) 11.7 18.61 (17:10) 11.94 (15:00) 32.6 0.8 5 13.8 13
03-12-2019 12.1 (12:30) 6.2 (00:00) 9.2 12.22 (10:50) 6.67 (10:50) 0 0 0 0 0
02-12-2019 15.8 (13:30) 8 (00:00) 11.9 8.33 (06:50) 4.17 (02:10) 0 0 0 0 0
01-12-2019 15.6 (15:00) 10.6 (00:00) 13.1 7.78 (05:50) 6.11 (05:50) 0 0 0 0 0
30-11-2019 17.6 (13:30) 12.6 (00:00) 15.1 14.44 (15:00) 9.17 (15:10) 0 0 0 0 0
29-11-2019 17.4 (14:00) 12.4 (00:00) 14.9 6.39 (00:30) 3.33 (00:30) 0 0 0 0 0
28-11-2019 19.4 (14:50) 11.6 (00:00) 15.5 8.33 (03:00) 3.89 (02:50) 0 0 0 0 0
27-11-2019 18.4 (10:30) 13.2 (00:00) 15.8 9.44 (14:30) 5.83 (14:00) 0 0 0 0 0
26-11-2019 17.5 (12:50) 10.3 (00:00) 13.9 14.17 (22:10) 6.94 (19:40) 0 0 0 0 0
25-11-2019 16.7 (13:30) 8.4 (00:00) 12.6 8.89 (01:30) 5.56 (08:50) 0 0 0 0 0
24-11-2019 17.1 (14:10) 10.6 (00:00) 13.9 6.67 (23:20) 4.44 (09:50) 0 0 0 0 0
23-11-2019 16.9 (15:00) 11.7 (00:00) 14.3 14.72 (02:50) 9.44 (02:50) 1.4 1.4 0 0 0
22-11-2019 16.2 (14:30) 10.3 (00:00) 13.3 15 (21:30) 9.72 (21:30) 18.4 0 0.2 2 16.2
21-11-2019 16.3 (12:10) 9.4 (00:00) 12.8 11.11 (12:40) 7.22 (13:00) 0 0 0 0 0
20-11-2019 14.8 (14:30) 5.9 (00:00) 10.4 12.22 (12:10) 6.67 (15:00) 0 0 0 0 0
19-11-2019 14.3 (14:50) 4.9 (00:00) 9.6 9.72 (08:30) 6.11 (01:20) 0 0 0 0 0
18-11-2019 13.3 (15:10) 6.2 (00:00) 9.8 13.61 (13:10) 6.94 (13:10) 0 0 0 0 0
17-11-2019 14.3 (14:10) 5.1 (00:00) 9.7 8.89 (09:10) 5.56 (00:40) 0 0 0 0 0
16-11-2019 14.3 (14:40) 5.9 (00:00) 10.1 9.17 (21:30) 5.28 (22:50) 0 0 0 0 0
15-11-2019 12.9 (14:50) 5.5 (00:00) 9.2 9.72 (16:10) 6.11 (16:10) 0 0 0 0 0

Gráficas

Temp. máximas Temp. mínimas Temp. medias Precipitaciones Rachas de viento máximas Velocidades máximas media en intervalos de 10 minutos

Datos horarios

Fecha y hora oficial Temperatura (ºC) Velocidad del viento (km/h) Dirección del viento Racha (km/h) Dirección de racha Precipitación (mm) Presión (hPa) Tendencia (hPa) Humedad (%)
2019-12-14 23:00:00 13 9 Oeste 21 Noroeste 0 -- -- 75
2019-12-14 22:00:00 13.2 17 Noroeste 24 Noroeste 0 -- -- 70
2019-12-14 21:00:00 13.5 15 Noroeste 26 Noroeste 0 -- -- 69
2019-12-14 20:00:00 13.9 10 Noroeste 21 Noroeste 0 -- -- 70
2019-12-14 19:00:00 14.3 12 Noroeste 21 Noroeste 0 -- -- 69
2019-12-14 18:00:00 14.4 11 Norte 15 Noroeste 0 -- -- 70
2019-12-14 17:00:00 16.1 2 Noroeste 9 Oeste 0 -- -- 67
2019-12-14 16:00:00 17 5 Sudoeste 11 Sur 0 -- -- 67
2019-12-14 15:00:00 17.9 3 Sudoeste 12 Noroeste 0 -- -- 68
2019-12-14 14:00:00 18.4 3 Este 15 Noroeste 0 -- -- 60
2019-12-14 13:00:00 17.4 6 Noroeste 13 Nordeste 0 -- -- 65
2019-12-14 12:00:00 16.6 6 Nordeste 11 Nordeste 0 -- -- 67
2019-12-14 11:00:00 15.7 7 Este 11 Este 0 -- -- 72
2019-12-14 10:00:00 15.3 9 Norte 21 Norte 0 -- -- 68
2019-12-14 09:00:00 13.5 6 Norte 10 Norte 0 -- -- 81
2019-12-14 08:00:00 13 3 Sudoeste 11 Norte 0 -- -- 76
2019-12-14 07:00:00 12.5 6 Norte 9 Norte 0 -- -- 79
2019-12-14 06:00:00 12.5 5 Norte 10 Norte 0 -- -- 87
2019-12-14 05:00:00 13.2 2 Noroeste 11 Sur 0 -- -- 72
2019-12-14 04:00:00 14.9 4 Norte 24 Oeste 0 -- -- 64
2019-12-14 03:00:00 14.7 9 Noroeste 19 Oeste 0 -- -- 67
2019-12-14 02:00:00 14.5 5 Noroeste 22 Noroeste 0 -- -- 69
2019-12-14 01:00:00 14.3 15 Noroeste 24 Noroeste 0 -- -- 70
2019-12-14 00:00:00 15 4 Noroeste 17 Oeste 0 -- -- 67
2019-12-13 23:00:00 15.3 8 Oeste 21 Oeste 0 -- -- 66
2019-12-13 22:00:00 14.2 9 Noroeste 13 Noroeste 0 -- -- 79
2019-12-13 21:00:00 13.6 4 Noroeste 9 Noroeste 0 -- -- 87
2019-12-13 20:00:00 13.8 7 Norte 19 Nordeste 0 -- -- 88
2019-12-13 19:00:00 14.2 14 Nordeste 23 Nordeste 0 -- -- 88
2019-12-13 18:00:00 14.5 15 Nordeste 23 Nordeste 0 -- -- 88
2019-12-13 17:00:00 15.2 10 Este 26 Este 0 -- -- 85
2019-12-13 16:00:00 16.1 13 Nordeste 24 Nordeste 0 -- -- 68
2019-12-13 15:00:00 15.8 4 Este 13 Sudeste 0 -- -- 73
2019-12-13 14:00:00 16.1 9 Norte 15 Nordeste 0 -- -- 66
2019-12-13 13:00:00 16.2 5 Nordeste 10 Nordeste 0 -- -- 67
2019-12-13 12:00:00 16.3 7 Este 24 Oeste 0 -- -- 64
2019-12-13 11:00:00 16.2 9 Oeste 36 Noroeste 0 -- -- 60
2019-12-13 10:00:00 15.8 10 Oeste 31 Oeste 0 -- -- 60
2019-12-13 09:00:00 13.5 6 Este 22 Nordeste 0 -- -- 69
2019-12-13 08:00:00 13.3 7 Oeste 36 Sudeste 0 -- -- 66
2019-12-13 07:00:00 13.5 8 Oeste 45 Sudoeste 0 -- -- 70
2019-12-13 06:00:00 13 17 Oeste 40 Sudoeste 0 -- -- 70
2019-12-13 05:00:00 12.5 15 Oeste 38 Sudoeste 0 -- -- 67
2019-12-13 04:00:00 11.6 9 Oeste 24 Oeste 0 -- -- 70
2019-12-13 03:00:00 11.1 4 Noroeste 15 Sudoeste 0 -- -- 67
2019-12-13 02:00:00 11.3 5 Sudoeste 27 Oeste 0 -- -- 66
2019-12-13 01:00:00 11.4 8 Oeste 30 Oeste 0 -- -- 67
2019-12-13 00:00:00 11.3 12 Oeste 35 Oeste 0 -- -- 67
2019-12-12 23:00:00 11.2 18 Sudoeste 42 Sudoeste 0 -- -- 67
2019-12-12 22:00:00 11.3 18 Oeste 44 Oeste 0 -- -- 65
2019-12-12 21:00:00 11.5 16 Oeste 42 Sudoeste 0 -- -- 63
2019-12-12 20:00:00 11.7 20 Sudoeste 46 Sudoeste 0 -- -- 65
2019-12-12 19:00:00 11.7 18 Sudoeste 40 Sudoeste 0 -- -- 63
2019-12-12 18:00:00 11.8 22 Oeste 42 Oeste 0 -- -- 61
2019-12-12 17:00:00 11 3 Oeste 21 Sudoeste 0 -- -- 69
2019-12-12 16:00:00 11.3 9 Oeste 25 Sudoeste 0 -- -- 67
2019-12-12 15:00:00 11.6 6 Sudoeste 12 Oeste 0 -- -- 67
2019-12-12 14:00:00 12 3 Este 15 Sudoeste 0 -- -- 65
2019-12-12 13:00:00 12.2 8 Sudoeste 15 Sudoeste 0 -- -- 65
2019-12-12 12:00:00 10.9 5 Noroeste 21 Noroeste 0 -- -- 64
2019-12-12 11:00:00 7.4 15 Noroeste 23 Noroeste 0 -- -- 73
2019-12-12 10:00:00 8.3 14 Noroeste 22 Noroeste 0 -- -- 68
2019-12-12 09:00:00 7.6 15 Noroeste 26 Noroeste 0.2 -- -- 69
2019-12-12 08:00:00 7.1 17 Noroeste 26 Noroeste 0 -- -- 75
2019-12-12 07:00:00 6.4 18 Noroeste 24 Noroeste 0 -- -- 79
2019-12-12 06:00:00 7.3 15 Noroeste 26 Noroeste 0 -- -- 76
2019-12-12 05:00:00 7.1 12 Nordeste 24 Nordeste 0 -- -- 76
2019-12-12 04:00:00 6.9 5 Oeste 33 Noroeste 0 -- -- 80
2019-12-12 03:00:00 7.2 21 Noroeste 27 Noroeste 0 -- -- 85
2019-12-12 02:00:00 7.6 14 Noroeste 25 Noroeste 0 -- -- 86
2019-12-12 01:00:00 7.8 7 Noroeste 14 Oeste 0 -- -- 86
2019-12-12 00:00:00 8.2 10 Noroeste 22 Oeste 0 -- -- 87
2019-12-11 23:00:00 9.4 10 Oeste 17 Sudoeste 0 -- -- 87
2019-12-11 22:00:00 9.5 3 Oeste 12 Oeste 0 -- -- 90
2019-12-11 21:00:00 8.9 5 Sudoeste 10 Noroeste 0 -- -- 90
2019-12-11 20:00:00 8.7 4 Norte 14 Noroeste 0 -- -- 91
2019-12-11 19:00:00 9.3 12 Noroeste 26 Noroeste 0 -- -- 91
2019-12-11 18:00:00 9.4 15 Noroeste 27 Noroeste 1.2 -- -- 89
2019-12-11 17:00:00 11.8 8 Norte 27 Nordeste 0 -- -- 74
2019-12-11 16:00:00 12.3 10 Nordeste 23 Nordeste 0 -- -- 74
2019-12-11 15:00:00 12.3 8 Norte 23 Norte 0 -- -- 58
2019-12-11 14:00:00 12.7 15 Norte 23 Norte 0 -- -- 62
2019-12-11 13:00:00 14.6 4 Este 17 Oeste 0 -- -- 60
2019-12-11 12:00:00 13.8 6 Oeste 21 Oeste 0 -- -- 59
2019-12-11 11:00:00 12 5 Oeste 17 Noroeste 0 -- -- 64
2019-12-11 10:00:00 10.8 5 Sudoeste 15 Oeste 0 -- -- 69
2019-12-11 09:00:00 10.2 6 Oeste 17 Oeste 0 -- -- 71
2019-12-11 08:00:00 10.3 6 Oeste 27 Noroeste 0 -- -- 70
2019-12-11 07:00:00 10.3 11 Oeste 24 Noroeste 0 -- -- 69
2019-12-11 06:00:00 10 12 Oeste 28 Oeste 0 -- -- 65
2019-12-11 05:00:00 8.8 3 Sudoeste 8 Oeste 0 -- -- 72
2019-12-11 04:00:00 9.3 5 Oeste 16 Noroeste 0 -- -- 68
2019-12-11 03:00:00 8.4 11 Noroeste 22 Noroeste 0 -- -- 64
2019-12-11 02:00:00 9.5 6 Noroeste 20 Oeste 0 -- -- 61
2019-12-11 01:00:00 8.3 12 Noroeste 23 Noroeste 0 -- -- 68
2019-12-11 00:00:00 9.8 6 Noroeste 10 Noroeste 0 -- -- 66
2019-12-10 23:00:00 10.2 6 Noroeste 15 Oeste 0 -- -- 68
2019-12-10 22:00:00 10.4 9 Oeste 19 Noroeste 0 -- -- 67
2019-12-10 21:00:00 10.1 13 Noroeste 19 Noroeste 0 -- -- 68
2019-12-10 20:00:00 10.7 13 Noroeste 17 Noroeste 0 -- -- 73
2019-12-10 19:00:00 10.8 5 Noroeste 15 Noroeste 0 -- -- 77
2019-12-10 18:00:00 11.3 9 Oeste 15 Noroeste 0 -- -- 75
2019-12-10 17:00:00 12.3 5 Oeste 18 Oeste 0 -- -- 75
2019-12-10 16:00:00 13.3 10 Sudoeste 24 Sur 0 -- -- 70
2019-12-10 15:00:00 14 11 Sudoeste 26 Oeste 0 -- -- 63
2019-12-10 14:00:00 14 11 Sudoeste 26 Sudoeste 0 -- -- 64
2019-12-10 13:00:00 14.3 9 Sudoeste 20 Sur 0 -- -- 62
2019-12-10 12:00:00 13.7 5 Sur 13 Sudoeste 0 -- -- 61
2019-12-10 11:00:00 12 4 Sudeste 16 Noroeste 0 -- -- 60
2019-12-10 10:00:00 9.6 7 Noroeste 31 Oeste 0 -- -- 62
2019-12-10 09:00:00 7.3 15 Noroeste 27 Oeste 0 -- -- 71
2019-12-10 08:00:00 6.4 14 Oeste 38 Norte 0 -- -- 74
2019-12-10 07:00:00 9.2 17 Norte 48 Norte 0 -- -- 62
2019-12-10 06:00:00 6.4 9 Sudoeste 17 Oeste 0 -- -- 74
2019-12-10 05:00:00 8.2 10 Oeste 16 Oeste 0 -- -- 68
2019-12-10 04:00:00 7.7 8 Noroeste 22 Oeste 0 -- -- 71
2019-12-10 03:00:00 8.2 3 Oeste 13 Nordeste 0 -- -- 68
2019-12-10 02:00:00 8 2 Oeste 12 Norte 0 -- -- 71
2019-12-10 01:00:00 8.6 6 Oeste 18 Oeste 0 -- -- 70
2019-12-10 00:00:00 9 11 Noroeste 21 Oeste 0 -- -- 69
2019-12-09 23:00:00 10.8 9 Oeste 25 Norte 0 -- -- 66
2019-12-09 22:00:00 11.5 6 Sur 26 Norte 0 -- -- 68
2019-12-09 21:00:00 11.5 10 Noroeste 20 Noroeste 0 -- -- 86
2019-12-09 20:00:00 11.6 4 Noroeste 13 Nordeste 0 -- -- 88
2019-12-09 19:00:00 11.5 8 Nordeste 16 Nordeste 0 -- -- 88
2019-12-09 18:00:00 12.1 5 Nordeste 8 Norte 0 -- -- 85
2019-12-09 17:00:00 13.8 3 Este 6 Sudeste 0 -- -- 78
2019-12-09 16:00:00 14.6 2 Este 10 Sur 0 -- -- 75
2019-12-09 15:00:00 15.6 5 Sudeste 10 Sudeste 0 -- -- 70
2019-12-09 14:00:00 15.9 6 Sur 14 Oeste 0 -- -- 71
2019-12-09 13:00:00 14.4 12 Oeste 18 Oeste 0 -- -- 67
2019-12-09 12:00:00 12.6 11 Noroeste 23 Noroeste 0 -- -- 72
2019-12-09 11:00:00 12.2 15 Noroeste 24 Noroeste 0 -- -- 71
2019-12-09 10:00:00 10.6 17 Noroeste 30 Noroeste 0 -- -- 74
2019-12-09 09:00:00 9.8 18 Norte 28 Noroeste 0 -- -- 83
2019-12-09 08:00:00 9 21 Norte 34 Norte 0 -- -- 82
2019-12-09 07:00:00 9.1 17 Norte 22 Noroeste 0 -- -- 83
2019-12-09 06:00:00 10.4 7 Norte 13 Oeste 0 -- -- 86
2019-12-09 05:00:00 10.3 6 Noroeste 16 Noroeste 0 -- -- 87
2019-12-09 04:00:00 9.9 11 Noroeste 17 Noroeste 0 -- -- 83
2019-12-09 03:00:00 10.3 10 Norte 14 Norte 0 -- -- 87
2019-12-09 02:00:00 10.3 4 Oeste 20 Noroeste 0 -- -- 89
2019-12-09 01:00:00 11.3 4 Sur 25 Noroeste 0 -- -- 85
2019-12-09 00:00:00 10.7 6 Nordeste 22 Noroeste 0 -- -- 86
2019-12-08 23:00:00 10.5 7 Oeste 18 Noroeste 0 -- -- 85
2019-12-08 22:00:00 10.9 4 Norte 13 Noroeste 0 -- -- 84
2019-12-08 21:00:00 11.1 5 Noroeste 17 Noroeste 0 -- -- 83
2019-12-08 20:00:00 11 5 Noroeste 8 Noroeste 0 -- -- 84
2019-12-08 19:00:00 10.8 3 Noroeste 5 Noroeste 0 -- -- 83
2019-12-08 18:00:00 11.3 4 Noroeste 6 Noroeste 0 -- -- 84
2019-12-08 17:00:00 13 0 Calma 5 Sudoeste 0 -- -- 78
2019-12-08 16:00:00 13.7 3 Sur 9 Sur 0 -- -- 74
2019-12-08 15:00:00 15.4 6 Sur 13 Sudoeste 0 -- -- 70
2019-12-08 14:00:00 15.6 6 Sur 12 Sudeste 0 -- -- 75
2019-12-08 13:00:00 15.7 6 Sur 12 Sur 0 -- -- 73
2019-12-08 12:00:00 15.7 7 Sur 9 Sur 0 -- -- 74
2019-12-08 11:00:00 13.4 3 Noroeste 19 Noroeste 0 -- -- 78
2019-12-08 10:00:00 11.8 10 Noroeste 19 Noroeste 0 -- -- 77
2019-12-08 09:00:00 10.7 8 Noroeste 12 Noroeste 0 -- -- 89
2019-12-08 08:00:00 10.3 2 Norte 15 Noroeste 0 -- -- 89
2019-12-08 07:00:00 10.4 6 Noroeste 15 Noroeste 0 -- -- 86
2019-12-08 06:00:00 10.4 14 Noroeste 17 Noroeste 0 -- -- 87
2019-12-08 05:00:00 11 6 Noroeste 12 Noroeste 0 -- -- 89
2019-12-08 04:00:00 11.2 6 Oeste 13 Noroeste 0 -- -- 85
2019-12-08 03:00:00 10.7 10 Noroeste 20 Noroeste 0 -- -- 81
2019-12-08 02:00:00 10.7 14 Noroeste 21 Noroeste 0 -- -- 81
2019-12-08 01:00:00 11.2 13 Noroeste 18 Noroeste 0 -- -- 86
2019-12-08 00:00:00 10.8 10 Noroeste 13 Noroeste 0 -- -- 87
2019-12-07 23:00:00 10.6 11 Norte 20 Norte 0 -- -- 85
2019-12-07 22:00:00 11.2 13 Norte 21 Norte 0 -- -- 81
2019-12-07 21:00:00 11.3 12 Norte 17 Norte 0 -- -- 78
2019-12-07 20:00:00 11.6 8 Norte 9 Noroeste 0 -- -- 83
2019-12-07 19:00:00 12 3 Norte 6 Norte 0 -- -- 83
2019-12-07 18:00:00 12.1 3 Norte 6 Norte 0 -- -- 83
2019-12-07 17:00:00 13.4 3 Nordeste 8 Nordeste 0 -- -- 79
2019-12-07 16:00:00 14.4 2 Este 8 Este 0 -- -- 75
2019-12-07 15:00:00 15.2 3 Este 6 Este 0 -- -- 68
2019-12-07 14:00:00 15 4 Nordeste 8 Sudeste 0 -- -- 71
2019-12-07 13:00:00 16.2 5 Sudeste 11 Sudoeste 0 -- -- 64
2019-12-07 12:00:00 15.6 4 Sur 8 Sur 0 -- -- 70
2019-12-07 11:00:00 14.7 3 Este 9 Norte 0 -- -- 71
2019-12-07 10:00:00 11.8 8 Norte 26 Norte 0 -- -- 77
2019-12-07 09:00:00 9.5 18 Norte 26 Norte 0 -- -- 84
2019-12-07 08:00:00 8.8 13 Noroeste 23 Noroeste 0 -- -- 84
2019-12-07 07:00:00 9.6 12 Noroeste 17 Noroeste 0 -- -- 82
2019-12-07 06:00:00 10.1 10 Noroeste 20 Noroeste 0 -- -- 79
2019-12-07 05:00:00 9.8 15 Noroeste 24 Noroeste 0 -- -- 82
2019-12-07 04:00:00 9.5 6 Nordeste 26 Noroeste 0 -- -- 88
2019-12-07 03:00:00 9.5 7 Norte 24 Noroeste 0 -- -- 88
2019-12-07 02:00:00 9.9 17 Noroeste 32 Noroeste 0 -- -- 85
2019-12-07 01:00:00 10.8 9 Noroeste 15 Noroeste 0 -- -- 87
2019-12-07 00:00:00 11.4 8 Oeste 18 Oeste 0 -- -- 86
2019-12-06 23:00:00 11.5 6 Oeste 10 Noroeste 0 -- -- 91
2019-12-06 22:00:00 11.8 5 Oeste 9 Sudoeste 0 -- -- 90
2019-12-06 21:00:00 11.7 6 Oeste 10 Oeste 0 -- -- 88
2019-12-06 20:00:00 11.6 6 Oeste 12 Sudoeste 0 -- -- 86
2019-12-06 19:00:00 11.7 5 Sudoeste 11 Sur 0 -- -- 81
2019-12-06 18:00:00 12 5 Sudoeste 10 Sur 0 -- -- 77
2019-12-06 17:00:00 13.8 5 Sur 9 Sur 0 -- -- 71
2019-12-06 16:00:00 15 4 Sur 11 Sur 0 -- -- 63
2019-12-06 15:00:00 16.2 5 Sur 10 Sudoeste 0 -- -- 63
2019-12-06 14:00:00 15.8 6 Sur 9 Sur 0 -- -- 73
2019-12-06 13:00:00 14.9 5 Sur 11 Noroeste 0 -- -- 75
2019-12-06 12:00:00 13.3 8 Norte 19 Noroeste 0 -- -- 70
2019-12-06 11:00:00 12.3 14 Noroeste 18 Noroeste 0 -- -- 72
2019-12-06 10:00:00 12.4 9 Norte 21 Noroeste 0 -- -- 73
2019-12-06 09:00:00 11.6 11 Norte 22 Norte 0 -- -- 70
2019-12-06 08:00:00 11.5 17 Norte 23 Norte 0 -- -- 68
2019-12-06 07:00:00 11.7 13 Norte 22 Norte 0 -- -- 64
2019-12-06 06:00:00 11.7 20 Norte 24 Norte 0 -- -- 65
2019-12-06 05:00:00 11.4 9 Norte 20 Norte 0 -- -- 71
2019-12-06 04:00:00 11.5 4 Noroeste 14 Noroeste 0 -- -- 69
2019-12-06 03:00:00 11.5 5 Norte 15 Oeste 0 -- -- 70
2019-12-06 02:00:00 11.7 9 Norte 22 Norte 0 -- -- 70
2019-12-06 01:00:00 11.8 8 Norte 24 Norte 0 -- -- 72
2019-12-06 00:00:00 11.9 9 Noroeste 23 Noroeste 0 -- -- 72
2019-12-05 23:00:00 11.5 7 Noroeste 28 Norte 0 -- -- 75
2019-12-05 22:00:00 10.7 18 Norte 34 Noroeste 0 -- -- 80
2019-12-05 21:00:00 10.9 21 Norte 36 Norte 0 -- -- 81
2019-12-05 20:00:00 11 13 Norte 27 Noroeste 0 -- -- 80
2019-12-05 19:00:00 10.8 12 Norte 27 Norte 0 -- -- 81
2019-12-05 18:00:00 10.4 18 Norte 33 Nordeste 0 -- -- 83
2019-12-05 17:00:00 9.9 21 Norte 39 Nordeste 0.4 -- -- 89
2019-12-05 16:00:00 9.9 17 Nordeste 37 Norte 0 -- -- 87
2019-12-05 15:00:00 9.7 22 Norte 44 Norte 0.2 -- -- 89
2019-12-05 14:00:00 9.4 21 Norte 40 Norte 2.8 -- -- 95
2019-12-05 13:00:00 9.5 20 Nordeste 44 Nordeste 2.8 -- -- 93
2019-12-05 12:00:00 10.7 17 Norte 47 Norte 0 -- -- 85
2019-12-05 11:00:00 10.6 17 Norte 44 Norte 0 -- -- 88
2019-12-05 10:00:00 9.9 15 Norte 39 Nordeste 0.2 -- -- 93
2019-12-05 09:00:00 9.7 18 Norte 44 Noroeste 0.6 -- -- 95
2019-12-05 08:00:00 9.5 21 Norte 44 Norte 0.8 -- -- 97
2019-12-05 07:00:00 9.4 18 Norte 50 Norte 1.4 -- -- 98
2019-12-05 06:00:00 9.4 21 Norte 40 Norte 3 -- -- 98
2019-12-05 05:00:00 9.6 21 Norte 36 Norte 3.8 -- -- 98
2019-12-05 04:00:00 9.7 19 Norte 36 Norte 5.4 -- -- 98
2019-12-05 03:00:00 9.9 18 Norte 43 Norte 4.4 -- -- 98
2019-12-05 02:00:00 10 15 Norte 39 Norte 2.4 -- -- 98
2019-12-05 01:00:00 10 18 Norte 34 Norte 2.4 -- -- 97
2019-12-05 00:00:00 12 14 Nordeste 46 Este 2.4 -- -- 97
2019-12-04 23:00:00 12.1 33 Nordeste 58 Nordeste 3.4 -- -- 97
2019-12-04 22:00:00 12.7 35 Nordeste 57 Este 2 -- -- 96
2019-12-04 21:00:00 12.9 33 Nordeste 59 Nordeste 0 -- -- 93
2019-12-04 20:00:00 12.6 35 Nordeste 61 Nordeste 3.6 -- -- 96
2019-12-04 19:00:00 12.4 39 Nordeste 66 Nordeste 1.6 -- -- 95
2019-12-04 18:00:00 12.2 28 Nordeste 67 Este 4 -- -- 96
2019-12-04 17:00:00 12.4 37 Nordeste 66 Nordeste 1.4 -- -- 94
2019-12-04 16:00:00 12.4 30 Nordeste 61 Nordeste 2.8 -- -- 94
2019-12-04 15:00:00 12.8 43 Nordeste 66 Nordeste 1.6 -- -- 90
2019-12-04 14:00:00 12.5 35 Nordeste 59 Nordeste 2.2 -- -- 94
2019-12-04 13:00:00 12.4 27 Nordeste 63 Nordeste 1.8 -- -- 94
2019-12-04 12:00:00 12.3 31 Nordeste 54 Este 1.8 -- -- 94
2019-12-04 11:00:00 12.5 27 Nordeste 53 Nordeste 0.8 -- -- 92
2019-12-04 10:00:00 12.3 27 Nordeste 48 Nordeste 0.6 -- -- 92
2019-12-04 09:00:00 12.2 27 Nordeste 45 Nordeste 0.8 -- -- 92
2019-12-04 08:00:00 11.8 20 Nordeste 39 Nordeste 0.4 -- -- 96
2019-12-04 07:00:00 11 11 Norte 33 Norte 0.6 -- -- 96
2019-12-04 06:00:00 10.5 20 Norte 34 Noroeste 0.8 -- -- 95
2019-12-04 05:00:00 11.5 16 Norte 40 Norte 0 -- -- 90
2019-12-04 04:00:00 11.4 18 Norte 37 Norte 0 -- -- 89
2019-12-04 03:00:00 11.1 17 Norte 37 Norte 0 -- -- 87
2019-12-04 02:00:00 11.3 13 Norte 40 Norte 0 -- -- 84
2019-12-04 01:00:00 11.6 13 Norte 43 Norte 0 -- -- 80
2019-12-04 00:00:00 11.7 15 Norte 37 Nordeste 0 -- -- 77
2019-12-03 23:00:00 11.5 14 Norte 34 Nordeste 0 -- -- 74
2019-12-03 22:00:00 11.2 13 Norte 36 Norte 0 -- -- 73
2019-12-03 21:00:00 11.2 16 Norte 37 Nordeste 0 -- -- 72
2019-12-03 20:00:00 11 14 Norte 34 Norte 0 -- -- 72
2019-12-03 19:00:00 11 15 Norte 36 Nordeste 0 -- -- 69
2019-12-03 18:00:00 11 18 Norte 38 Noroeste 0 -- -- 65
2019-12-03 17:00:00 11.4 17 Norte 39 Norte 0 -- -- 62
2019-12-03 16:00:00 12 14 Norte 32 Norte 0 -- -- 59
2019-12-03 15:00:00 11.9 12 Norte 31 Nordeste 0 -- -- 58
2019-12-03 14:00:00 11.7 19 Norte 41 Norte 0 -- -- 57
2019-12-03 13:00:00 11.9 14 Norte 33 Nordeste 0 -- -- 55
2019-12-03 12:00:00 11.2 19 Norte 35 Norte 0 -- -- 56
2019-12-03 11:00:00 10.5 19 Norte 44 Norte 0 -- -- 58
2019-12-03 10:00:00 8.5 6 Noroeste 19 Norte 0 -- -- 66
2019-12-03 09:00:00 6.6 10 Norte 22 Norte 0 -- -- 72
2019-12-03 08:00:00 6.3 16 Norte 27 Norte 0 -- -- 73
2019-12-03 07:00:00 7 14 Norte 21 Nordeste 0 -- -- 72
2019-12-03 06:00:00 8.3 14 Norte 24 Norte 0 -- -- 64
2019-12-03 05:00:00 7 13 Norte 20 Norte 0 -- -- 74
2019-12-03 04:00:00 7.6 8 Norte 18 Norte 0 -- -- 71
2019-12-03 03:00:00 8.4 17 Norte 35 Norte 0 -- -- 67
2019-12-03 02:00:00 8.1 7 Norte 27 Norte 0 -- -- 71
2019-12-03 01:00:00 7.7 10 Norte 18 Norte 0 -- -- 75
2019-12-03 00:00:00 8 10 Norte 17 Noroeste 0 -- -- 73
2019-12-02 23:00:00 8.5 7 Norte 19 Norte 0 -- -- 71
2019-12-02 22:00:00 9.1 10 Norte 18 Norte 0 -- -- 69
2019-12-02 21:00:00 9.6 4 Norte 19 Norte 0 -- -- 66
2019-12-02 20:00:00 10.3 14 Norte 22 Norte 0 -- -- 64
2019-12-02 19:00:00 11.5 12 Norte 22 Norte 0 -- -- 60
2019-12-02 18:00:00 13 9 Nordeste 24 Nordeste 0 -- -- 57
2019-12-02 17:00:00 13.7 6 Norte 17 Noroeste 0 -- -- 54
2019-12-02 16:00:00 15.1 2 Norte 18 Nordeste 0 -- -- 51
2019-12-02 15:00:00 15.8 8 Norte 21 Este 0 -- -- 49
2019-12-02 14:00:00 15.3 9 Norte 25 Norte 0 -- -- 51
2019-12-02 13:00:00 15.2 12 Norte 27 Norte 0 -- -- 51
2019-12-02 12:00:00 14.3 8 Norte 27 Nordeste 0 -- -- 56
2019-12-02 11:00:00 13.6 7 Sur 23 Oeste 0 -- -- 58
2019-12-02 10:00:00 10.9 10 Oeste 22 Noroeste 0 -- -- 65
2019-12-02 09:00:00 10.8 10 Oeste 30 Nordeste 0 -- -- 63
2019-12-02 08:00:00 10.3 10 Norte 24 Este 0 -- -- 63
2019-12-02 07:00:00 10.8 9 Norte 30 Nordeste 0 -- -- 62
2019-12-02 06:00:00 9.4 7 Noroeste 22 Norte 0 -- -- 69
2019-12-02 05:00:00 8.6 13 Norte 20 Noroeste 0 -- -- 77
2019-12-02 04:00:00 9.7 10 Norte 19 Nordeste 0 -- -- 70
2019-12-02 03:00:00 9.5 13 Noroeste 23 Norte 0 -- -- 79
2019-12-02 02:00:00 10.2 12 Norte 19 Norte 0 -- -- 77
2019-12-02 01:00:00 10.6 12 Norte 18 Norte 0 -- -- 77
2019-12-02 00:00:00 10.6 10 Noroeste 19 Norte 0 -- -- 82
2019-12-01 23:00:00 11 14 Norte 20 Norte 0 -- -- 84
2019-12-01 22:00:00 11.3 9 Norte 19 Norte 0 -- -- 85
2019-12-01 21:00:00 11.9 8 Norte 18 Norte 0 -- -- 83
2019-12-01 20:00:00 12.5 8 Norte 12 Norte 0 -- -- 82
2019-12-01 19:00:00 13.1 8 Norte 17 Norte 0 -- -- 86
2019-12-01 18:00:00 13.5 5 Nordeste 20 Este 0 -- -- 85
2019-12-01 17:00:00 13.6 12 Este 21 Este 0 -- -- 86
2019-12-01 16:00:00 14.5 8 Este 15 Este 0 -- -- 80
2019-12-01 15:00:00 15.6 4 Sudeste 12 Este 0 -- -- 78
2019-12-01 14:00:00 15.4 4 Sudeste 16 Este 0 -- -- 78
2019-12-01 13:00:00 14.7 4 Norte 13 Norte 0 -- -- 78
2019-12-01 12:00:00 13 10 Norte 19 Norte 0 -- -- 82
2019-12-01 11:00:00 12.1 13 Norte 20 Noroeste 0 -- -- 88
2019-12-01 10:00:00 12 12 Norte 21 Noroeste 0 -- -- 86
2019-12-01 09:00:00 11.9 13 Noroeste 18 Norte 0 -- -- 91
2019-12-01 08:00:00 12.1 11 Noroeste 24 Norte 0 -- -- 90
2019-12-01 07:00:00 12.1 16 Norte 27 Norte 0 -- -- 92
2019-12-01 06:00:00 12.3 21 Norte 28 Norte 0 -- -- 93
2019-12-01 05:00:00 12.2 12 Norte 18 Norte 0 -- -- 93
2019-12-01 04:00:00 13 10 Norte 14 Norte 0 -- -- 94
2019-12-01 03:00:00 13.6 0 Calma 4 Norte 0 -- -- 93
2019-12-01 02:00:00 13.3 2 Norte 5 Oeste 0 -- -- 93
2019-12-01 01:00:00 13.5 4 Oeste 13 Oeste 0 -- -- 92
2019-12-01 00:00:00 13.8 7 Sudoeste 24 Sudoeste 0 -- -- 93
2019-11-30 23:00:00 14 11 Sur 26 Sudoeste 0 -- -- 93
2019-11-30 22:00:00 14.3 9 Oeste 28 Oeste 0 -- -- 90
2019-11-30 21:00:00 14.9 11 Sudoeste 45 Sur 0 -- -- 92
2019-11-30 20:00:00 14.8 23 Sur 42 Sudoeste 0 -- -- 96
2019-11-30 19:00:00 14.7 23 Sur 44 Sudoeste 0 -- -- 95
2019-11-30 18:00:00 14.7 24 Sudoeste 41 Sudoeste 0 -- -- 94
2019-11-30 17:00:00 14.8 24 Sur 37 Sudoeste 0 -- -- 91
2019-11-30 16:00:00 15.3 26 Sudoeste 45 Sudoeste 0 -- -- 89
2019-11-30 15:00:00 16 31 Sur 52 Sur 0 -- -- 84
2019-11-30 14:00:00 17.1 8 Sur 25 Sudoeste 0 -- -- 78
2019-11-30 13:00:00 17.3 11 Sur 32 Sudoeste 0 -- -- 78
2019-11-30 12:00:00 16.7 13 Sur 27 Sudoeste 0 -- -- 81
2019-11-30 11:00:00 16.5 9 Sur 22 Sur 0 -- -- 82
2019-11-30 10:00:00 15.1 7 Sudoeste 15 Sudoeste 0 -- -- 88
2019-11-30 09:00:00 13.5 9 Sudoeste 15 Oeste 0 -- -- 94
2019-11-30 08:00:00 12.8 6 Oeste 9 Sudoeste 0 -- -- 94
2019-11-30 07:00:00 12.6 2 Sur 4 Noroeste 0 -- -- 92
2019-11-30 06:00:00 12.7 3 Norte 8 Noroeste 0 -- -- 90
2019-11-30 05:00:00 13 7 Noroeste 13 Noroeste 0 -- -- 88
2019-11-30 04:00:00 13 8 Noroeste 13 Noroeste 0 -- -- 87
2019-11-30 03:00:00 13.5 5 Noroeste 9 Noroeste 0 -- -- 86
2019-11-30 02:00:00 13.7 4 Noroeste 9 Noroeste 0 -- -- 84
2019-11-30 01:00:00 13.8 5 Oeste 13 Noroeste 0 -- -- 84
2019-11-30 00:00:00 13.4 8 Noroeste 12 Noroeste 0 -- -- 84
2019-11-29 23:00:00 13.6 8 Noroeste 11 Noroeste 0 -- -- 86
2019-11-29 22:00:00 13.9 6 Oeste 13 Oeste 0 -- -- 86
2019-11-29 21:00:00 13.4 3 Sudoeste 5 Sudoeste 0 -- -- 86
2019-11-29 20:00:00 13.4 2 Oeste 6 Sudoeste 0 -- -- 84
2019-11-29 19:00:00 14.4 3 Oeste 9 Oeste 0 -- -- 83
2019-11-29 18:00:00 14.6 2 Oeste 6 Sudoeste 0 -- -- 82
2019-11-29 17:00:00 15.3 3 Sur 6 Sur 0 -- -- 79
2019-11-29 16:00:00 15.7 4 Sudeste 7 Sur 0 -- -- 78
2019-11-29 15:00:00 16.2 3 Sudeste 13 Sudeste 0 -- -- 75
2019-11-29 14:00:00 17.4 4 Sudeste 14 Este 0 -- -- 71
2019-11-29 13:00:00 16.7 8 Este 17 Este 0 -- -- 72
2019-11-29 12:00:00 16.4 12 Este 17 Este 0 -- -- 75
2019-11-29 11:00:00 16.5 8 Este 14 Este 0 -- -- 75
2019-11-29 10:00:00 15.2 6 Este 10 Norte 0 -- -- 79
2019-11-29 09:00:00 13.3 4 Noroeste 7 Noroeste 0 -- -- 82
2019-11-29 08:00:00 12.6 7 Noroeste 9 Noroeste 0 -- -- 79
2019-11-29 07:00:00 12.5 0 Calma 9 Noroeste 0 -- -- 78
2019-11-29 06:00:00 12.9 2 Noroeste 6 Noroeste 0 -- -- 76
2019-11-29 05:00:00 12.9 5 Noroeste 21 Noroeste 0 -- -- 74
2019-11-29 04:00:00 13.9 3 Sudoeste 15 Nordeste 0 -- -- 73
2019-11-29 03:00:00 14.7 8 Norte 10 Norte 0 -- -- 66
2019-11-29 02:00:00 15.8 2 Noroeste 23 Oeste 0 -- -- 62
2019-11-29 01:00:00 15.9 9 Oeste 23 Oeste 0 -- -- 60
2019-11-29 00:00:00 16.4 7 Noroeste 26 Oeste 0 -- -- 58
2019-11-28 23:00:00 17.1 14 Oeste 29 Oeste 0 -- -- 55
2019-11-28 22:00:00 16.1 6 Noroeste 24 Sudoeste 0 -- -- 63
2019-11-28 21:00:00 16.4 9 Oeste 19 Sur 0 -- -- 62
2019-11-28 20:00:00 16 9 Sudoeste 25 Oeste 0 -- -- 64
2019-11-28 19:00:00 15.1 7 Oeste 15 Sudoeste 0 -- -- 66
2019-11-28 18:00:00 15.8 5 Este 9 Este 0 -- -- 74
2019-11-28 17:00:00 17.2 3 Norte 24 Oeste 0 -- -- 59
2019-11-28 16:00:00 18.8 10 Oeste 27 Sudoeste 0 -- -- 49
2019-11-28 15:00:00 19.4 8 Sudoeste 23 Sudoeste 0 -- -- 49
2019-11-28 14:00:00 18.8 5 Oeste 24 Oeste 0 -- -- 54
2019-11-28 13:00:00 18.6 6 Sudeste 15 Sur 0 -- -- 62
2019-11-28 12:00:00 17.7 6 Este 13 Este 0 -- -- 63
2019-11-28 11:00:00 16.8 6 Sudoeste 11 Sudoeste 0 -- -- 59
2019-11-28 10:00:00 15.2 5 Sudoeste 12 Sudoeste 0 -- -- 66
2019-11-28 09:00:00 13.1 5 Nordeste 13 Oeste 0 -- -- 73
2019-11-28 08:00:00 11.7 3 Sudoeste 13 Norte 0 -- -- 72
2019-11-28 07:00:00 12.9 8 Oeste 17 Noroeste 0 -- -- 66
2019-11-28 06:00:00 13.4 10 Noroeste 15 Noroeste 0 -- -- 64
2019-11-28 05:00:00 12.3 5 Oeste 7 Oeste 0 -- -- 70
2019-11-28 04:00:00 13.3 6 Noroeste 19 Sudoeste 0 -- -- 62
2019-11-28 03:00:00 14.1 13 Oeste 30 Oeste 0 -- -- 59
2019-11-28 02:00:00 13.2 9 Oeste 19 Oeste 0 -- -- 65
2019-11-28 01:00:00 13.2 3 Oeste 12 Sudoeste 0 -- -- 69
2019-11-28 00:00:00 13.4 7 Noroeste 12 Noroeste 0 -- -- 71
2019-11-27 23:00:00 13.2 4 Norte 9 Noroeste 0 -- -- 79
2019-11-27 22:00:00 13.7 3 Nordeste 6 Noroeste 0 -- -- 79
2019-11-27 21:00:00 14.2 3 Sudoeste 14 Oeste 0 -- -- 78
2019-11-27 20:00:00 13.7 6 Oeste 12 Oeste 0 -- -- 78
2019-11-27 19:00:00 14 3 Noroeste 13 Noroeste 0 -- -- 80
2019-11-27 18:00:00 14.3 9 Noroeste 13 Noroeste 0 -- -- 78
2019-11-27 17:00:00 15.1 5 Norte 12 Norte 0 -- -- 79
2019-11-27 16:00:00 15.9 8 Nordeste 28 Este 0 -- -- 78
2019-11-27 15:00:00 15.8 14 Este 34 Este 0 -- -- 80
2019-11-27 14:00:00 15.7 21 Este 29 Este 0 -- -- 76
2019-11-27 06:00:00 -- -- -- -- -- -- -- -- --
2019-11-27 05:00:00 13.7 5 Oeste 22 Sudoeste 0 -- -- 83
2019-11-27 04:00:00 13.8 10 Sudoeste 21 Sudoeste 0 -- -- 82
2019-11-27 03:00:00 14 7 Oeste 21 Sudoeste 0 -- -- 88
2019-11-27 02:00:00 14.4 13 Sudoeste 22 Sudoeste 0 -- -- 90
2019-11-27 01:00:00 14.5 16 Sudoeste 32 Sudoeste 0 -- -- 86
2019-11-27 00:00:00 14.8 13 Sudoeste 45 Sudoeste 0 -- -- 83
2019-11-26 23:00:00 14.9 14 Sudoeste 51 Sudoeste 0 -- -- 79
2019-11-26 22:00:00 15.3 21 Sudoeste 39 Oeste 0 -- -- 70
2019-11-26 21:00:00 14.9 13 Sudoeste 34 Sudoeste 0 -- -- 76
2019-11-26 20:00:00 15.1 17 Sudoeste 41 Sur 0 -- -- 81
2019-11-26 19:00:00 15.3 17 Sudoeste 45 Sudoeste 0 -- -- 84
2019-11-26 18:00:00 15.4 18 Sudoeste 39 Sudoeste 0 -- -- 84
2019-11-26 17:00:00 15.7 19 Sudoeste 44 Oeste 0 -- -- 82
2019-11-26 16:00:00 16.4 11 Sudoeste 33 Oeste 0 -- -- 81
2019-11-26 15:00:00 17 15 Sudoeste 40 Sudoeste 0 -- -- 75
2019-11-26 14:00:00 16.7 22 Sur 44 Sudoeste 0 -- -- 76
2019-11-26 13:00:00 17.5 22 Sur 40 Sur 0 -- -- 71
2019-11-26 12:00:00 16.4 19 Sur 32 Sur 0 -- -- 71
2019-11-26 11:00:00 13.9 5 Oeste 13 Oeste 0 -- -- 76
2019-11-26 10:00:00 13 5 Oeste 17 Noroeste 0 -- -- 82
2019-11-26 09:00:00 10.8 9 Noroeste 18 Noroeste 0 -- -- 79
2019-11-26 08:00:00 11.3 8 Noroeste 19 Noroeste 0 -- -- 81
2019-11-26 07:00:00 10.4 10 Noroeste 14 Noroeste 0 -- -- 79
2019-11-26 06:00:00 10.6 11 Noroeste 19 Noroeste 0 -- -- 77
2019-11-26 05:00:00 11.2 11 Noroeste 18 Noroeste 0 -- -- 68
2019-11-26 04:00:00 11.3 10 Noroeste 18 Noroeste 0 -- -- 72
2019-11-26 03:00:00 10.7 5 Noroeste 14 Noroeste 0 -- -- 76
2019-11-26 02:00:00 12 10 Noroeste 15 Noroeste 0 -- -- 68
2019-11-26 01:00:00 11.6 12 Noroeste 19 Noroeste 0 -- -- 73
2019-11-26 00:00:00 12 14 Noroeste 20 Noroeste 0 -- -- 71
2019-11-25 23:00:00 12.4 4 Sur 14 Noroeste 0 -- -- 73
2019-11-25 22:00:00 12.6 10 Noroeste 17 Sudoeste 0 -- -- 76
2019-11-25 21:00:00 12.7 10 Oeste 16 Oeste 0 -- -- 77
2019-11-25 20:00:00 12.3 6 Noroeste 13 Oeste 0 -- -- 77
2019-11-25 19:00:00 12 5 Oeste 9 Oeste 0 -- -- 78
2019-11-25 18:00:00 12.3 6 Oeste 10 Sudoeste 0 -- -- 77
2019-11-25 17:00:00 14.4 3 Oeste 10 Oeste 0 -- -- 73
2019-11-25 16:00:00 15.4 4 Sur 13 Sudoeste 0 -- -- 67
2019-11-25 15:00:00 16.2 6 Sur 12 Sur 0 -- -- 63
2019-11-25 14:00:00 16.3 7 Sur 19 Sudoeste 0 -- -- 65
2019-11-25 13:00:00 16.5 9 Sur 16 Sur 0 -- -- 67
2019-11-25 12:00:00 16 5 Sudoeste 9 Sur 0 -- -- 62
2019-11-25 11:00:00 13.7 6 Noroeste 12 Norte 0 -- -- 66
2019-11-25 10:00:00 12.4 10 Norte 24 Noroeste 0 -- -- 68
2019-11-25 09:00:00 10 18 Noroeste 29 Noroeste 0 -- -- 75
2019-11-25 08:00:00 8.9 14 Noroeste 21 Noroeste 0 -- -- 80
2019-11-25 07:00:00 8.8 9 Norte 14 Norte 0 -- -- 81
2019-11-25 06:00:00 9 7 Noroeste 16 Norte 0 -- -- 81
2019-11-25 05:00:00 9 3 Sur 13 Noroeste 0 -- -- 81
2019-11-25 04:00:00 9.6 6 Norte 23 Norte 0 -- -- 78
2019-11-25 03:00:00 10 18 Norte 27 Noroeste 0 -- -- 76
2019-11-25 02:00:00 10.1 9 Noroeste 32 Noroeste 0 -- -- 77
2019-11-25 01:00:00 10.4 18 Noroeste 24 Noroeste 0 -- -- 76
2019-11-25 00:00:00 10.6 14 Noroeste 24 Noroeste 0 -- -- 78
2019-11-24 23:00:00 11.3 9 Noroeste 20 Noroeste 0 -- -- 81
2019-11-24 22:00:00 11.9 8 Noroeste 12 Oeste 0 -- -- 81
2019-11-24 21:00:00 12.6 8 Noroeste 18 Oeste 0 -- -- 78
2019-11-24 20:00:00 12.9 11 Oeste 18 Oeste 0 -- -- 78
2019-11-24 19:00:00 13.2 6 Oeste 17 Sudoeste 0 -- -- 79
2019-11-24 18:00:00 13.2 9 Sudoeste 14 Sudoeste 0 -- -- 79
2019-11-24 17:00:00 14.5 7 Sur 12 Sur 0 -- -- 74
2019-11-24 16:00:00 15.4 5 Sur 12 Sur 0 -- -- 70
2019-11-24 15:00:00 16.9 5 Sur 10 Sudeste 0 -- -- 63
2019-11-24 14:00:00 17 6 Sur 10 Sur 0 -- -- 61
2019-11-24 13:00:00 16.7 4 Sudoeste 9 Sur 0 -- -- 57
2019-11-24 12:00:00 16 4 Este 13 Noroeste 0 -- -- 60
2019-11-24 11:00:00 13.7 10 Norte 21 Noroeste 0 -- -- 67
2019-11-24 10:00:00 12.7 13 Norte 23 Norte 0 -- -- 67
2019-11-24 09:00:00 11.2 12 Norte 23 Noroeste 0 -- -- 73
2019-11-24 08:00:00 10.8 9 Norte 13 Noroeste 0 -- -- 76
2019-11-24 07:00:00 11.1 9 Noroeste 12 Noroeste 0 -- -- 77
2019-11-24 06:00:00 11.7 7 Noroeste 10 Noroeste 0 -- -- 72
2019-11-24 05:00:00 12.4 6 Noroeste 15 Noroeste 0 -- -- 63
2019-11-24 04:00:00 12.4 11 Noroeste 17 Noroeste 0 -- -- 61
2019-11-24 03:00:00 12.3 7 Noroeste 14 Noroeste 0 -- -- 76
2019-11-24 02:00:00 12.7 5 Noroeste 8 Norte 0 -- -- 84
2019-11-24 01:00:00 12.9 6 Norte 20 Nordeste 0 -- -- 77
2019-11-24 00:00:00 13 12 Norte 22 Norte 0 -- -- 69
2019-11-23 23:00:00 12.7 15 Norte 23 Norte 0 -- -- 67
2019-11-23 22:00:00 12.6 8 Noroeste 26 Norte 0 -- -- 65
2019-11-23 21:00:00 12.9 15 Norte 23 Noroeste 0 -- -- 67
2019-11-23 20:00:00 13.7 8 Oeste 18 Noroeste 0 -- -- 71
2019-11-23 19:00:00 13.2 5 Oeste 10 Oeste 0 -- -- 74
2019-11-23 18:00:00 13.5 6 Norte 16 Noroeste 0 -- -- 72
2019-11-23 17:00:00 15.1 5 Nordeste 23 Este 0 -- -- 69
2019-11-23 16:00:00 15.7 8 Nordeste 18 Norte 0 -- -- 71
2019-11-23 15:00:00 16.9 3 Noroeste 12 Este 0 -- -- 65
2019-11-23 14:00:00 16.5 5 Sudeste 10 Sudoeste 0 -- -- 67
2019-11-23 13:00:00 14.7 4 Sudoeste 6 Sudoeste 0 -- -- 75
2019-11-23 12:00:00 13.9 3 Sudoeste 11 Oeste 0 -- -- 77
2019-11-23 11:00:00 13.1 7 Oeste 14 Oeste 0 -- -- 76
2019-11-23 10:00:00 12.9 10 Oeste 25 Sudoeste 0 -- -- 76
2019-11-23 09:00:00 12.7 9 Oeste 21 Sudoeste 0 -- -- 77
2019-11-23 08:00:00 11.9 12 Sudoeste 26 Oeste 0 -- -- 84
2019-11-23 07:00:00 12 12 Sudoeste 28 Sudoeste 0 -- -- 84
2019-11-23 06:00:00 12.5 17 Sudoeste 31 Sudoeste 0 -- -- 87
2019-11-23 05:00:00 13.5 7 Oeste 24 Sudoeste 0 -- -- 86
2019-11-23 04:00:00 15 15 Sudoeste 41 Sudoeste 0.8 -- -- 99
2019-11-23 03:00:00 14.6 24 Sudoeste 53 Sudoeste 0.4 -- -- 98
2019-11-23 02:00:00 15.1 19 Sur 40 Sur 0 -- -- 100
2019-11-23 01:00:00 15 20 Sur 37 Sur 0.2 -- -- 99
2019-11-23 00:00:00 14.9 21 Sur 45 Sudoeste 0.2 -- -- 99
2019-11-22 23:00:00 14.9 18 Sur 48 Sur 0.4 -- -- 99
2019-11-22 22:00:00 14.9 18 Sur 54 Sur 2 -- -- 99
2019-11-22 21:00:00 15 26 Sudoeste 52 Sudoeste 1 -- -- 98
2019-11-22 20:00:00 15 16 Sur 35 Sur 12.6 -- -- 97
2019-11-22 19:00:00 14.9 10 Sur 22 Sur 0 -- -- 94
2019-11-22 18:00:00 14.6 11 Sur 33 Sudoeste 0 -- -- 92
2019-11-22 17:00:00 14.7 21 Sudoeste 35 Sur 0 -- -- 89
2019-11-22 16:00:00 15.3 17 Sur 33 Sur 0 -- -- 86
2019-11-22 15:00:00 16.1 19 Sur 30 Sudoeste 0 -- -- 85
2019-11-22 14:00:00 15.5 9 Sur 23 Sur 0 -- -- 90
2019-11-22 13:00:00 13.5 9 Oeste 33 Sudoeste 2 -- -- 93
2019-11-22 12:00:00 13.8 7 Oeste 14 Oeste 0 -- -- 87
2019-11-22 11:00:00 14.1 5 Sudoeste 9 Sudoeste 0.2 -- -- 86
2019-11-22 10:00:00 13.1 3 Este 6 Este 0 -- -- 78
2019-11-22 09:00:00 12.5 3 Este 5 Este 0 -- -- 76
2019-11-22 08:00:00 11.8 0 Calma 11 Oeste 0 -- -- 72
2019-11-22 07:00:00 11.9 7 Noroeste 13 Sudoeste 0 -- -- 66
2019-11-22 06:00:00 10.8 2 Nordeste 11 Sudoeste 0 -- -- 72
2019-11-22 05:00:00 10.6 6 Oeste 9 Oeste 0 -- -- 66
2019-11-22 04:00:00 10.9 4 Sudoeste 8 Oeste 0 -- -- 64
2019-11-22 03:00:00 11.5 0 Calma 14 Sudoeste 0 -- -- 69
2019-11-22 02:00:00 12.1 5 Oeste 20 Oeste 0 -- -- 65
2019-11-22 01:00:00 12.5 10 Oeste 22 Sudoeste 0 -- -- 63
2019-11-22 00:00:00 12.7 10 Oeste 26 Oeste 0 -- -- 66
2019-11-21 23:00:00 12.6 10 Oeste 28 Oeste 0 -- -- 63
2019-11-21 22:00:00 12.4 9 Oeste 35 Sudoeste 0 -- -- 62
2019-11-21 21:00:00 12.2 11 Oeste 29 Sudoeste 0 -- -- 58
2019-11-21 20:00:00 12.5 9 Oeste 31 Oeste 0 -- -- 57
2019-11-21 19:00:00 12.5 10 Sudoeste 26 Sudoeste 0 -- -- 57
2019-11-21 18:00:00 12.6 13 Sudoeste 35 Sudoeste 0 -- -- 60
2019-11-21 17:00:00 13.6 18 Sudoeste 37 Oeste 0 -- -- 68
2019-11-21 16:00:00 13.8 15 Sudoeste 38 Oeste 0 -- -- 61
2019-11-21 15:00:00 14.2 18 Sudoeste 39 Sudoeste 0 -- -- 63
2019-11-21 14:00:00 15.2 21 Sur 38 Sur 0 -- -- 60
2019-11-21 13:00:00 14.8 26 Sudoeste 40 Sudoeste 0 -- -- 63
2019-11-21 12:00:00 16.2 8 Sur 23 Sudoeste 0 -- -- 58
2019-11-21 11:00:00 14.7 8 Sur 17 Sur 0 -- -- 65
2019-11-21 10:00:00 13.1 9 Sudoeste 16 Oeste 0 -- -- 64
2019-11-21 09:00:00 11 8 Oeste 18 Oeste 0 -- -- 69
2019-11-21 08:00:00 10.3 5 Oeste 10 Oeste 0 -- -- 69
2019-11-21 07:00:00 10.2 5 Noroeste 9 Noroeste 0 -- -- 71
2019-11-21 06:00:00 9.4 0 Calma 5 Sudoeste 0 -- -- 78
2019-11-21 05:00:00 9.4 2 Oeste 8 Noroeste 0 -- -- 77
2019-11-21 04:00:00 9.6 6 Noroeste 10 Noroeste 0 -- -- 73
2019-11-21 03:00:00 10.1 4 Oeste 8 Oeste 0 -- -- 71
2019-11-21 02:00:00 10.7 0 Calma 9 Noroeste 0 -- -- 69
2019-11-21 01:00:00 11 5 Noroeste 9 Noroeste 0 -- -- 70
2019-11-21 00:00:00 11.4 4 Oeste 16 Oeste 0 -- -- 71
2019-11-20 23:00:00 12.1 8 Noroeste 15 Oeste 0 -- -- 66
2019-11-20 22:00:00 12 6 Noroeste 18 Oeste 0 -- -- 66
2019-11-20 21:00:00 12 9 Noroeste 17 Oeste 0 -- -- 65
2019-11-20 20:00:00 11.9 8 Oeste 18 Oeste 0 -- -- 68
2019-11-20 19:00:00 12.2 9 Oeste 26 Sudoeste 0 -- -- 66
2019-11-20 18:00:00 12.6 12 Sudoeste 32 Sudoeste 0 -- -- 66
2019-11-20 17:00:00 12.8 14 Sudoeste 43 Sudoeste 0 -- -- 66
2019-11-20 16:00:00 13 19 Sur 39 Sur 0 -- -- 68
2019-11-20 15:00:00 14 24 Sudoeste 37 Sudoeste 0 -- -- 64
2019-11-20 14:00:00 14.1 17 Sur 33 Sudoeste 0 -- -- 65
2019-11-20 13:00:00 14.2 18 Sur 44 Sur 0 -- -- 63
2019-11-20 12:00:00 14.1 15 Sur 29 Sudoeste 0 -- -- 60
2019-11-20 11:00:00 12.5 6 Sudoeste 16 Oeste 0 -- -- 59
2019-11-20 10:00:00 10.3 4 Oeste 16 Oeste 0 -- -- 61
2019-11-20 09:00:00 8 6 Noroeste 21 Norte 0 -- -- 64
2019-11-20 08:00:00 6.3 11 Noroeste 24 Noroeste 0 -- -- 68
2019-11-20 07:00:00 6.1 15 Noroeste 22 Noroeste 0 -- -- 69
2019-11-20 06:00:00 6.5 12 Noroeste 21 Noroeste 0 -- -- 69
2019-11-20 05:00:00 7.4 11 Noroeste 21 Oeste 0 -- -- 68
2019-11-20 04:00:00 7.5 13 Noroeste 22 Noroeste 0 -- -- 69
2019-11-20 03:00:00 7.8 12 Noroeste 24 Noroeste 0 -- -- 70
2019-11-20 02:00:00 7.4 17 Noroeste 24 Noroeste 0 -- -- 73
2019-11-20 01:00:00 7.8 13 Noroeste 21 Noroeste 0 -- -- 75
2019-11-20 00:00:00 8.3 15 Noroeste 25 Noroeste 0 -- -- 73
2019-11-19 23:00:00 8.6 16 Noroeste 20 Noroeste 0 -- -- 74
2019-11-19 22:00:00 9.6 13 Noroeste 18 Noroeste 0 -- -- 71
2019-11-19 21:00:00 10.3 9 Noroeste 14 Noroeste 0 -- -- 68
2019-11-19 20:00:00 10.2 8 Sur 15 Sur 0 -- -- 69
2019-11-19 19:00:00 10.1 7 Sur 18 Sudeste 0 -- -- 69
2019-11-19 18:00:00 10.1 8 Sur 18 Sur 0 -- -- 67
2019-11-19 17:00:00 11.4 9 Sur 21 Sur 0 -- -- 64
2019-11-19 16:00:00 13.3 10 Sur 23 Sudoeste 0 -- -- 58
2019-11-19 15:00:00 13.7 12 Sudoeste 23 Sudoeste 0 -- -- 61
2019-11-19 14:00:00 14 9 Sur 21 Sur 0 -- -- 58
2019-11-19 13:00:00 13.4 9 Sudoeste 17 Sudoeste 0 -- -- 56
2019-11-19 12:00:00 11.6 6 Noroeste 18 Noroeste 0 -- -- 52
2019-11-19 11:00:00 9.1 12 Noroeste 23 Noroeste 0 -- -- 64
2019-11-19 10:00:00 6.7 15 Noroeste 26 Norte 0 -- -- 66
2019-11-19 09:00:00 6.5 18 Norte 35 Norte 0 -- -- 65
2019-11-19 08:00:00 5.6 15 Norte 21 Norte 0 -- -- 66
2019-11-19 07:00:00 5.1 15 Norte 31 Noroeste 0 -- -- 70
2019-11-19 06:00:00 5 16 Norte 23 Noroeste 0 -- -- 74
2019-11-19 05:00:00 6.3 14 Noroeste 20 Noroeste 0 -- -- 76
2019-11-19 04:00:00 6.9 5 Noroeste 17 Noroeste 0 -- -- 76
2019-11-19 03:00:00 7.2 11 Noroeste 25 Noroeste 0 -- -- 73
2019-11-19 02:00:00 7 18 Noroeste 32 Noroeste 0 -- -- 70
2019-11-19 01:00:00 6.3 18 Noroeste 27 Noroeste 0 -- -- 68
2019-11-19 00:00:00 6.2 4 Oeste 16 Oeste 0 -- -- 67
2019-11-18 23:00:00 7.3 9 Norte 25 Norte 0 -- -- 60
2019-11-18 22:00:00 7.8 14 Norte 26 Norte 0 -- -- 57
2019-11-18 21:00:00 8.5 10 Norte 26 Nordeste 0 -- -- 56
2019-11-18 20:00:00 9 10 Norte 19 Nordeste 0 -- -- 57
2019-11-18 19:00:00 9.1 13 Norte 33 Norte 0 -- -- 57
2019-11-18 18:00:00 9.5 15 Norte 22 Norte 0 -- -- 57
2019-11-18 17:00:00 11.3 8 Norte 17 Norte 0 -- -- 53
2019-11-18 16:00:00 12.7 5 Noroeste 26 Norte 0 -- -- 49
2019-11-18 15:00:00 13.1 12 Nordeste 43 Nordeste 0 -- -- 44
2019-11-18 14:00:00 12.7 12 Este 49 Este 0 -- -- 51
2019-11-18 13:00:00 12.1 22 Nordeste 46 Nordeste 0 -- -- 57
2019-11-18 12:00:00 11.8 24 Nordeste 37 Este 0 -- -- 64
2019-11-18 11:00:00 11.1 15 Nordeste 36 Este 0 -- -- 71
2019-11-18 10:00:00 10.9 13 Nordeste 29 Este 0 -- -- 72
2019-11-18 09:00:00 8.8 14 Norte 28 Noroeste 0 -- -- 78
2019-11-18 08:00:00 8.4 7 Norte 22 Norte 0 -- -- 80
2019-11-18 07:00:00 8.8 12 Norte 28 Norte 0 -- -- 79
2019-11-18 06:00:00 8.7 17 Norte 32 Norte 0 -- -- 79
2019-11-18 05:00:00 8.7 18 Norte 28 Nordeste 0 -- -- 74
2019-11-18 04:00:00 8.3 17 Norte 29 Norte 0 -- -- 70
2019-11-18 03:00:00 8.2 18 Norte 36 Norte 0 -- -- 71
2019-11-18 02:00:00 8.8 21 Norte 30 Norte 0 -- -- 68
2019-11-18 01:00:00 7.4 18 Noroeste 25 Norte 0 -- -- 76
2019-11-18 00:00:00 9.5 13 Norte 23 Norte 0 -- -- 65
2019-11-17 23:00:00 9.5 10 Norte 17 Noroeste 0 -- -- 66
2019-11-17 22:00:00 9.5 9 Noroeste 16 Noroeste 0 -- -- 67
2019-11-17 21:00:00 9.4 9 Noroeste 18 Norte 0 -- -- 67
2019-11-17 20:00:00 10.5 12 Noroeste 16 Noroeste 0 -- -- 62
2019-11-17 19:00:00 10.6 10 Noroeste 15 Noroeste 0 -- -- 66
2019-11-17 18:00:00 11.2 6 Noroeste 11 Sur 0 -- -- 62
2019-11-17 17:00:00 12 5 Sur 14 Sur 0 -- -- 66
2019-11-17 16:00:00 12.5 2 Sudeste 13 Sudoeste 0 -- -- 61
2019-11-17 15:00:00 12.9 6 Sur 23 Sudeste 0 -- -- 61
2019-11-17 14:00:00 14.2 10 Sur 22 Sur 0 -- -- 55
2019-11-17 13:00:00 13.2 8 Sur 14 Noroeste 0 -- -- 55
2019-11-17 12:00:00 10.6 5 Sudoeste 17 Noroeste 0 -- -- 59
2019-11-17 11:00:00 8.5 4 Noroeste 24 Noroeste 0 -- -- 66
2019-11-17 10:00:00 7.6 7 Noroeste 32 Noroeste 0 -- -- 66
2019-11-17 09:00:00 6.3 13 Noroeste 31 Noroeste 0 -- -- 69
2019-11-17 08:00:00 5.3 19 Norte 28 Norte 0 -- -- 73
2019-11-17 07:00:00 6.1 13 Noroeste 26 Noroeste 0 -- -- 69
2019-11-17 06:00:00 7.1 3 Oeste 22 Noroeste 0 -- -- 67
2019-11-17 05:00:00 7.1 10 Noroeste 22 Noroeste 0 -- -- 66
2019-11-17 04:00:00 7 14 Noroeste 18 Noroeste 0 -- -- 67
2019-11-17 03:00:00 7.4 7 Noroeste 28 Noroeste 0 -- -- 71
2019-11-17 02:00:00 7.3 17 Noroeste 28 Noroeste 0 -- -- 66
2019-11-17 01:00:00 7.1 20 Noroeste 29 Noroeste 0 -- -- 71
2019-11-17 00:00:00 7.9 15 Noroeste 29 Norte 0 -- -- 74
2019-11-16 23:00:00 7.9 17 Norte 27 Norte 0 -- -- 74
2019-11-16 22:00:00 8 19 Norte 33 Norte 0 -- -- 76
2019-11-16 21:00:00 8.1 15 Norte 27 Norte 0 -- -- 72
2019-11-16 20:00:00 9.1 12 Norte 21 Noroeste 0 -- -- 54
2019-11-16 19:00:00 10.2 7 Noroeste 20 Oeste 0 -- -- 55
2019-11-16 18:00:00 10.6 5 Oeste 20 Oeste 0 -- -- 59
2019-11-16 17:00:00 11.7 10 Sur 20 Sur 0 -- -- 73
2019-11-16 16:00:00 13.1 8 Sur 18 Sudeste 0 -- -- 67
2019-11-16 15:00:00 14.1 9 Sur 14 Sur 0 -- -- 61
2019-11-16 14:00:00 14 6 Sur 14 Sur 0 -- -- 62
2019-11-16 13:00:00 13.9 8 Sur 13 Sur 0 -- -- 64
2019-11-16 12:00:00 12.2 6 Sur 10 Noroeste 0 -- -- 68
2019-11-16 11:00:00 10.6 6 Noroeste 18 Noroeste 0 -- -- 69
2019-11-16 10:00:00 8.6 13 Noroeste 25 Noroeste 0 -- -- 71
2019-11-16 09:00:00 6.9 17 Noroeste 24 Noroeste 0 -- -- 74
2019-11-16 08:00:00 6.9 14 Noroeste 20 Noroeste 0 -- -- 74
2019-11-16 07:00:00 6.6 7 Noroeste 17 Noroeste 0 -- -- 75
2019-11-16 06:00:00 6.3 12 Noroeste 17 Noroeste 0 -- -- 77
2019-11-16 05:00:00 6.3 12 Noroeste 19 Noroeste 0 -- -- 78
2019-11-16 04:00:00 6.3 14 Noroeste 22 Noroeste 0 -- -- 79
2019-11-16 03:00:00 6.1 14 Noroeste 21 Noroeste 0 -- -- 80
2019-11-16 02:00:00 6.3 13 Norte 18 Norte 0 -- -- 78
2019-11-16 01:00:00 6.8 12 Norte 25 Norte 0 -- -- 77
2019-11-16 00:00:00 7.4 17 Norte 22 Norte 0 -- -- 74
2019-11-15 23:00:00 7.7 8 Norte 15 Norte 0 -- -- 70
2019-11-15 22:00:00 7.5 7 Noroeste 10 Noroeste 0 -- -- 69
2019-11-15 21:00:00 7.8 8 Noroeste 19 Sudoeste 0 -- -- 67
2019-11-15 20:00:00 8.9 9 Noroeste 19 Oeste 0 -- -- 61
2019-11-15 19:00:00 9.1 6 Oeste 28 Oeste 0 -- -- 64
2019-11-15 18:00:00 10 14 Oeste 32 Oeste 0 -- -- 62
2019-11-15 17:00:00 11.1 13 Oeste 35 Sudoeste 0 -- -- 56
2019-11-15 16:00:00 12.3 13 Sudoeste 31 Sudoeste 0 -- -- 53
2019-11-15 15:00:00 12.8 13 Sur 27 Sudoeste 0 -- -- 61
2019-11-15 14:00:00 11.3 6 Sudoeste 13 Oeste 0 -- -- 75
2019-11-15 13:00:00 10.4 4 Sudoeste 17 Noroeste 0 -- -- 76
2019-11-15 12:00:00 7.8 13 Noroeste 21 Norte 0 -- -- 84
2019-11-15 11:00:00 6.9 15 Noroeste 23 Noroeste 0 -- -- 85
2019-11-15 10:00:00 7.1 15 Norte 24 Norte 0 -- -- 83
2019-11-15 09:00:00 6.6 14 Norte 24 Norte 0 -- -- 86
2019-11-15 08:00:00 6.1 18 Norte 27 Norte 0 -- -- 87
2019-11-15 07:00:00 5.7 21 Norte 29 Norte 0 -- -- 88
2019-11-15 06:00:00 5.6 18 Noroeste 24 Norte 0 -- -- 90
2019-11-15 05:00:00 5.7 16 Norte 26 Noroeste 0 -- -- 90
2019-11-15 04:00:00 6.7 12 Norte 16 Noroeste 0 -- -- 89
2019-11-15 03:00:00 7.1 10 Noroeste 20 Noroeste 0 -- -- 88
2019-11-15 02:00:00 7.2 10 Noroeste 18 Noroeste 0 -- -- 87
2019-11-15 01:00:00 6.6 8 Noroeste 17 Noroeste 0 -- -- 89
2019-11-15 00:00:00 6.3 11 Noroeste 17 Noroeste 0 -- -- 87